Time;durP1;ratioP1;P1;durP2;ratioP2;P2;SDS_P1;SDS_P2;PMS_P1;PMS_P2;Temp;Humidity;BMP_temperature;BMP_pressure;BME280_temperature;BME280_humidity;BME280_pressure;Samples;Min_cycle;Max_cycle;Signal;HPM_P1;HPM_P2
2022/05/12 00:00:36;;;;;;;5.33;2.17;;;15.00;99.90;15.00;101306.00;;;;5034177;28;20593;-79
2022/05/12 00:03:12;;;;;;;1.17;0.90;;;15.10;99.90;14.90;101323.00;;;;5051047;28;20192;-80
2022/05/12 00:05:46;;;;;;;0.70;0.70;;;15.00;99.90;15.00;101330.00;;;;5051163;28;20184;-80
2022/05/12 00:08:13;;;;;;;1.23;1.23;;;15.00;99.90;14.80;101319.00;;;;5034515;28;20181;-78
2022/05/12 00:10:49;;;;;;;0.40;0.40;;;15.00;99.90;14.70;101327.00;;;;5035905;28;20168;-80
2022/05/12 00:13:15;;;;;;;2.80;2.60;;;15.00;99.90;14.90;101338.00;;;;5050259;28;20276;-79
2022/05/12 00:15:48;;;;;;;1.70;1.60;;;14.90;99.90;14.50;101337.00;;;;5050632;28;20179;-79
2022/05/12 00:18:14;;;;;;;2.50;1.20;;;14.70;99.90;14.30;101340.00;;;;5050322;28;20272;-79
2022/05/12 00:20:48;;;;;;;1.20;1.17;;;14.70;99.90;13.90;101362.00;;;;5051251;28;20164;-79
2022/05/12 00:23:21;;;;;;;0.67;0.67;;;14.40;99.90;13.90;101326.00;;;;5050681;28;20176;-78
2022/05/12 00:25:49;;;;;;;0.50;0.50;;;14.30;99.90;13.90;101364.00;;;;5050551;28;20230;-78
2022/05/12 00:28:21;;;;;;;0.50;0.50;;;14.20;99.90;13.90;101366.00;;;;5033563;28;20191;-78
2022/05/12 00:30:58;;;;;;;0.87;0.87;;;14.20;99.90;14.00;101373.00;;;;5033234;28;20271;-78
2022/05/12 00:33:29;;;;;;;2.00;1.63;;;14.20;99.90;13.80;101352.00;;;;5033756;28;20229;-80
2022/05/12 00:36:05;;;;;;;0.90;0.90;;;14.20;99.90;13.60;101343.00;;;;5050683;28;20182;-80
2022/05/12 00:38:39;;;;;;;0.57;0.57;;;14.10;99.90;13.60;101368.00;;;;5050068;28;20181;-80
2022/05/12 00:41:08;;;;;;;1.13;1.03;;;14.00;99.90;13.40;101381.00;;;;5033865;28;20695;-81
2022/05/12 00:43:51;;;;;;;3.53;1.93;;;13.90;99.90;13.40;101382.00;;;;5049971;28;20177;-80
2022/05/12 00:46:36;;;;;;;0.60;0.60;;;13.80;99.90;13.60;101385.00;;;;5050055;28;20547;-79
2022/05/12 00:49:32;;;;;;;6.50;3.60;;;13.90;99.90;13.50;101344.00;;;;5049421;28;20175;-76
2022/05/12 00:52:29;;;;;;;4.27;3.47;;;13.90;99.90;13.30;101384.00;;;;5049844;28;20300;-75
2022/05/12 00:55:23;;;;;;;0.73;0.73;;;13.80;99.90;13.50;101386.00;;;;5049197;28;20176;-76
2022/05/12 00:58:02;;;;;;;0.60;0.60;;;13.90;99.90;13.40;101385.00;;;;5049581;28;20623;-76
2022/05/12 01:00:36;;;;;;;0.50;0.50;;;13.90;99.90;13.50;101393.00;;;;5049657;28;20185;-76
2022/05/12 01:03:14;;;;;;;0.97;0.93;;;13.90;99.90;13.20;101391.00;;;;5049821;28;20278;-76
2022/05/12 01:05:49;;;;;;;1.60;1.50;;;13.70;99.90;13.30;101391.00;;;;5033800;28;20164;-76
2022/05/12 01:08:24;;;;;;;0.50;0.50;;;13.70;99.90;13.20;101376.00;;;;5049402;28;20271;-76
2022/05/12 01:11:00;;;;;;;0.40;0.40;;;13.60;99.90;13.80;101385.00;;;;5049631;28;20202;-75
2022/05/12 01:13:35;;;;;;;0.40;0.40;;;13.80;99.90;14.00;101398.00;;;;5049544;28;20207;-75
2022/05/12 01:16:09;;;;;;;1.47;1.37;;;13.90;99.90;13.60;101364.00;;;;5033218;28;20639;-75
2022/05/12 01:18:44;;;;;;;0.60;0.60;;;13.90;99.90;13.90;101394.00;;;;5049597;28;20581;-75
2022/05/12 01:21:15;;;;;;;4.23;3.37;;;14.00;99.90;13.40;101394.00;;;;5049611;28;20195;-75
2022/05/12 01:23:42;;;;;;;9.43;3.13;;;13.90;99.90;13.60;101393.00;;;;5049451;28;20183;-75
2022/05/12 01:26:13;;;;;;;2.00;1.27;;;13.80;99.90;13.40;101369.00;;;;5034036;28;20605;-75
2022/05/12 01:28:45;;;;;;;0.73;0.73;;;13.70;99.90;13.30;101404.00;;;;5049093;28;20190;-75
2022/05/12 01:31:23;;;;;;;6.30;4.87;;;13.70;99.90;13.50;101417.00;;;;5048950;28;20595;-75
2022/05/12 01:33:51;;;;;;;0.97;0.97;;;13.80;99.90;13.10;101407.00;;;;5033732;28;20179;-76
2022/05/12 01:36:31;;;;;;;1.03;1.03;;;13.70;99.90;13.30;101414.00;;;;5049923;28;20190;-76
2022/05/12 01:39:12;;;;;;;18.00;4.23;;;13.70;99.90;13.80;101390.00;;;;5049385;28;20180;-77
2022/05/12 01:41:48;;;;;;;1.53;1.43;;;13.90;99.90;13.20;101418.00;;;;5049500;28;20172;-76
2022/05/12 01:44:19;;;;;;;1.53;1.47;;;13.70;99.90;13.30;101418.00;;;;5048569;28;20527;-76
2022/05/12 01:47:12;;;;;;;2.03;1.90;;;13.70;99.90;13.30;101381.00;;;;5049450;28;20203;-77
2022/05/12 01:49:50;;;;;;;4.00;3.23;;;13.70;99.90;13.30;101409.00;;;;5052306;28;20554;-77
2022/05/12 01:52:29;;;;;;;1.67;1.57;;;13.60;99.90;13.50;101413.00;;;;5048730;28;20658;-77
2022/05/12 01:55:03;;;;;;;13.23;4.57;;;13.80;99.90;13.50;101423.00;;;;5048378;28;20186;-77
2022/05/12 01:57:37;;;;;;;2.23;2.07;;;13.80;99.90;13.10;101424.00;;;;5032229;28;20201;-77
2022/05/12 02:00:21;;;;;;;0.60;0.60;;;13.60;99.90;13.40;101430.00;;;;5048553;28;20167;-77
2022/05/12 02:03:00;;;;;;;2.13;1.57;;;13.60;99.90;13.40;101420.00;;;;5048329;28;20241;-76
2022/05/12 02:05:55;;;;;;;1.47;1.37;;;13.60;99.90;13.10;101386.00;;;;5032452;28;20184;-76
2022/05/12 02:08:29;;;;;;;1.07;1.07;;;13.60;99.90;13.10;101452.00;;;;5031614;28;20193;-77
2022/05/12 02:11:06;;;;;;;0.40;0.40;;;13.60;99.90;12.90;101434.00;;;;5048423;28;20170;-77
2022/05/12 02:13:43;;;;;;;0.83;0.57;;;13.40;99.90;13.10;101450.00;;;;5032121;28;20247;-78
2022/05/12 02:16:17;;;;;;;0.93;0.93;;;13.50;99.90;13.00;101448.00;;;;5049093;28;20530;-78
2022/05/12 02:18:45;;;;;;;0.80;0.80;;;13.50;99.90;12.90;101412.00;;;;5047557;28;20222;-78
2022/05/12 02:21:12;;;;;;;0.40;0.40;;;13.40;99.90;13.20;101459.00;;;;5048593;28;20570;-78
2022/05/12 02:23:44;;;;;;;0.53;0.53;;;13.50;99.90;13.80;101453.00;;;;5048476;28;20190;-78
2022/05/12 02:26:16;;;;;;;1.40;1.23;;;13.90;99.90;13.90;101418.00;;;;5047761;28;20222;-78
2022/05/12 02:28:56;;;;;;;6.80;2.40;;;13.90;99.90;13.80;101465.00;;;;5048215;28;20180;-78
2022/05/12 02:31:25;;;;;;;0.50;0.50;;;13.90;99.90;13.20;101455.00;;;;5032807;28;20224;-78
2022/05/12 02:33:53;;;;;;;0.93;0.90;;;13.60;99.90;13.50;101473.00;;;;5031564;28;20673;-79
2022/05/12 02:36:28;;;;;;;1.20;1.20;;;13.70;99.90;13.70;101450.00;;;;5048496;28;20160;-78
2022/05/12 02:38:59;;;;;;;0.60;0.60;;;13.80;99.90;13.30;101432.00;;;;5048200;28;20557;-78
2022/05/12 02:41:35;;;;;;;0.73;0.73;;;13.60;99.90;12.70;101465.00;;;;5033064;28;20650;-77
2022/05/12 02:44:05;;;;;;;0.40;0.40;;;13.30;99.90;12.80;101462.00;;;;5032364;28;20609;-78
2022/05/12 02:46:33;;;;;;;0.30;0.30;;;13.10;99.90;12.60;101456.00;;;;5032162;28;20187;-77
2022/05/12 02:49:07;;;;;;;0.40;0.40;;;13.20;99.90;12.90;101455.00;;;;5033201;28;20156;-76
2022/05/12 02:51:43;;;;;;;1.83;1.63;;;13.20;99.90;13.20;101478.00;;;;5048405;28;20717;-77
2022/05/12 02:54:24;;;;;;;1.33;1.23;;;13.30;99.90;12.70;101486.00;;;;5047478;28;20234;-77
2022/05/12 02:56:55;;;;;;;0.43;0.43;;;13.20;99.90;12.80;101481.00;;;;5047192;28;20187;-77
2022/05/12 02:59:31;;;;;;;2.20;2.10;;;13.10;99.90;12.60;101490.00;;;;5047705;28;20187;-76
2022/05/12 03:02:15;;;;;;;0.73;0.73;;;13.10;99.90;12.40;101455.00;;;;5031239;28;20546;-76
2022/05/12 03:04:46;;;;;;;0.40;0.40;;;12.90;99.90;12.30;101474.00;;;;5047687;28;20573;-76
2022/05/12 03:07:23;;;;;;;0.40;0.40;;;12.80;99.90;12.40;101486.00;;;;5048142;28;20212;-76
2022/05/12 03:09:54;;;;;;;0.70;0.70;;;12.80;99.90;12.60;101464.00;;;;5031317;28;20175;-76
2022/05/12 03:12:26;;;;;;;1.23;1.23;;;13.00;99.90;13.00;101491.00;;;;5031847;28;20205;-76
2022/05/12 03:14:57;;;;;;;0.30;0.30;;;13.00;99.90;12.40;101491.00;;;;5032656;28;20647;-76
2022/05/12 03:17:32;;;;;;;2.03;1.67;;;12.90;99.90;12.30;101487.00;;;;5033144;28;20169;-76
2022/05/12 03:20:10;;;;;;;2.37;1.90;;;12.80;99.90;11.90;101497.00;;;;5035363;28;20244;-76
2022/05/12 03:22:44;;;;;;;7.83;6.83;;;12.60;99.90;11.80;101491.00;;;;5052189;28;20548;-76
2022/05/12 03:25:15;;;;;;;3.13;2.90;;;12.40;99.90;12.10;101505.00;;;;5051054;28;20176;-75
2022/05/12 03:27:44;;;;;;;2.33;1.13;;;12.50;99.90;11.80;101460.00;;;;5052071;28;20253;-75
2022/05/12 03:30:18;;;;;;;6.23;3.80;;;12.40;99.90;11.90;101459.00;;;;5051999;28;20258;-75
2022/05/12 03:32:49;;;;;;;0.93;0.93;;;12.40;99.90;11.80;101497.00;;;;5051321;28;20615;-76
2022/05/12 03:35:23;;;;;;;1.47;1.10;;;12.30;99.90;11.70;101506.00;;;;5051427;28;20186;-76
2022/05/12 03:37:50;;;;;;;0.50;0.40;;;12.20;99.90;12.10;101494.00;;;;5051671;28;20185;-76
2022/05/12 03:40:17;;;;;;;0.33;0.33;;;12.30;99.90;11.80;101527.00;;;;5051232;28;20244;-76
2022/05/12 03:42:50;;;;;;;1.70;1.60;;;12.30;99.90;11.70;101528.00;;;;5018056;28;20217;-76
2022/05/12 03:45:24;;;;;;;1.23;1.13;;;12.20;99.90;11.60;101487.00;;;;5051399;28;20170;-76
2022/05/12 03:48:06;;;;;;;0.40;0.40;;;12.20;99.90;11.50;101532.00;;;;5036427;28;20180;-76
2022/05/12 03:50:37;;;;;;;2.73;2.53;;;12.20;99.90;11.70;101533.00;;;;5051643;28;20531;-78
2022/05/12 03:53:13;;;;;;;0.77;0.77;;;12.20;99.90;11.60;101525.00;;;;5035888;28;20202;-78
2022/05/12 03:55:39;;;;;;;0.73;0.73;;;12.10;99.90;11.70;101530.00;;;;5050935;28;20269;-77
2022/05/12 03:58:10;;;;;;;0.50;0.50;;;12.20;99.90;11.50;101540.00;;;;5035800;28;20260;-77
2022/05/12 04:00:39;;;;;;;5.83;2.63;;;12.10;99.90;12.00;101542.00;;;;5050853;28;20182;-83
2022/05/12 04:03:10;;;;;;;2.20;1.60;;;12.20;99.90;11.60;101542.00;;;;5047406;28;20179;-80
2022/05/12 04:05:42;;;;;;;3.13;1.67;;;12.20;99.90;11.70;101554.00;;;;5014549;28;20159;-79
2022/05/12 04:08:17;;;;;;;3.90;2.67;;;12.10;99.90;11.70;101550.00;;;;5014452;28;20583;-81
2022/05/12 04:10:43;;;;;;;2.50;2.30;;;12.10;99.90;11.60;101551.00;;;;5014530;28;20167;-78
2022/05/12 04:13:09;;;;;;;0.33;0.33;;;12.10;99.90;11.60;101542.00;;;;5015864;28;20209;-83
2022/05/12 04:15:40;;;;;;;2.87;0.80;;;12.10;99.90;11.50;101546.00;;;;5030682;28;20241;-79
2022/05/12 04:18:10;;;;;;;2.40;2.23;;;12.10;99.90;11.70;101539.00;;;;5016184;28;20330;-78
2022/05/12 04:20:45;;;;;;;0.80;0.80;;;12.10;99.90;11.80;101495.00;;;;5014513;28;20180;-82
2022/05/12 04:23:13;;;;;;;1.83;1.07;;;12.20;99.90;11.80;101554.00;;;;5014330;28;20194;-82
2022/05/12 04:25:48;;;;;;;0.40;0.40;;;12.30;99.90;12.10;101501.00;;;;5016536;28;20277;-80
2022/05/12 04:28:17;;;;;;;2.83;2.73;;;12.30;99.90;11.80;101558.00;;;;5050305;28;20193;-78
2022/05/12 04:30:48;;;;;;;1.53;1.43;;;12.40;99.90;11.70;101565.00;;;;5051149;28;20195;-79
2022/05/12 04:36:05;;;;;;;0.70;0.70;;;12.20;99.90;11.40;101578.00;;;;5034619;28;20664;-78
2022/05/12 04:38:30;;;;;;;5.03;2.13;;;12.00;99.90;11.60;101557.00;;;;5035210;28;20163;-81
2022/05/12 04:40:56;;;;;;;4.43;2.43;;;12.00;99.90;11.50;101569.00;;;;5050853;28;20221;-80
2022/05/12 04:43:31;;;;;;;1.67;1.57;;;12.00;99.90;11.50;101580.00;;;;5050158;28;20185;-79
2022/05/12 04:46:00;;;;;;;1.77;1.67;;;12.00;99.90;11.40;101574.00;;;;5033889;28;20195;-79
2022/05/12 04:48:31;;;;;;;0.53;0.53;;;12.00;99.90;11.40;101578.00;;;;5034050;28;20188;-79
2022/05/12 04:51:00;;;;;;;0.90;0.90;;;12.00;99.90;11.50;101540.00;;;;5049499;28;20206;-79
2022/05/12 04:53:32;;;;;;;12.27;2.03;;;12.00;99.90;12.10;101544.00;;;;5033557;28;20548;-80
2022/05/12 04:56:04;;;;;;;0.57;0.57;;;12.30;99.90;12.00;101585.00;;;;5049475;28;20198;-80
2022/05/12 04:58:33;;;;;;;0.30;0.30;;;12.40;99.90;12.10;101547.00;;;;5020778;28;20187;-79
2022/05/12 05:01:10;;;;;;;3.83;3.53;;;12.60;99.90;12.80;101585.00;;;;5049681;28;20662;-79
2022/05/12 05:03:42;;;;;;;0.30;0.30;;;12.90;99.90;13.80;101581.00;;;;5033987;28;20659;-80
2022/05/12 05:06:11;;;;;;;0.93;0.93;;;13.80;99.90;14.30;101548.00;;;;5050086;28;20279;-79
2022/05/12 05:08:41;;;;;;;1.97;1.90;;;14.30;99.90;13.70;101554.00;;;;5049748;28;20184;-79
2022/05/12 05:11:15;;;;;;;1.17;1.17;;;14.30;99.90;13.00;101544.00;;;;5034685;28;20167;-79
2022/05/12 05:13:49;;;;;;;2.60;2.40;;;13.80;99.90;13.50;101583.00;;;;5049288;28;20172;-78
2022/05/12 05:16:18;;;;;;;2.03;1.93;;;13.90;99.90;14.30;101590.00;;;;5049432;28;20176;-79
2022/05/12 05:18:50;;;;;;;0.50;0.50;;;14.20;99.90;15.60;101582.00;;;;5049859;28;20175;-78
2022/05/12 05:21:15;;;;;;;0.50;0.50;;;15.20;99.90;14.90;101597.00;;;;5049608;28;20191;-80
2022/05/12 05:23:50;;;;;;;0.40;0.40;;;15.20;99.90;14.60;101535.00;;;;5034041;28;20303;-79
2022/05/12 05:26:18;;;;;;;0.30;0.30;;;15.10;99.90;15.10;101598.00;;;;5032805;28;20185;-79
2022/05/12 05:28:47;;;;;;;0.20;0.20;;;15.40;99.90;14.10;101580.00;;;;5049538;28;20252;-88
2022/05/12 05:31:16;;;;;;;1.23;1.07;;;14.90;99.90;13.80;101604.00;;;;5048974;28;20215;-85
2022/05/12 05:33:42;;;;;;;3.83;1.80;;;14.70;99.90;14.60;101618.00;;;;5034058;28;20615;-83
2022/05/12 05:36:08;;;;;;;1.50;1.00;;;14.70;99.90;16.20;101617.00;;;;5033641;28;20181;-84
2022/05/12 05:38:40;;;;;;;4.33;1.67;;;15.90;99.90;14.50;101609.00;;;;5034170;28;20174;-85
2022/05/12 05:41:05;;;;;;;2.73;1.93;;;15.30;99.90;14.00;101615.00;;;;5049200;28;20180;-85
2022/05/12 05:43:34;;;;;;;0.63;0.63;;;14.70;99.90;14.20;101582.00;;;;5032948;28;20189;-83
2022/05/12 05:46:02;;;;;;;0.97;0.83;;;14.80;99.90;14.40;101628.00;;;;5032584;28;20266;-84
2022/05/12 05:48:28;;;;;;;0.60;0.60;;;14.90;99.90;14.90;101647.00;;;;5033680;28;20513;-83
2022/05/12 05:53:39;;;;;;;1.47;1.17;;;15.40;99.90;15.30;101637.00;;;;5033640;28;20169;-81
2022/05/12 05:56:17;;;;;;;0.20;0.20;;;15.50;99.90;15.20;101636.00;;;;5032572;28;20240;-79
2022/05/12 05:58:45;;;;;;;1.27;1.17;;;15.90;99.90;15.00;101631.00;;;;5033010;28;20202;-79
2022/05/12 06:01:13;;;;;;;0.10;0.10;;;15.90;99.90;15.10;101656.00;;;;5032270;28;20200;-77
2022/05/12 06:03:42;;;;;;;0.37;0.30;;;15.90;99.90;14.40;101651.00;;;;5048626;28;20225;-79
2022/05/12 06:06:13;;;;;;;4.43;0.67;;;15.40;99.90;14.70;101645.00;;;;5033744;28;20167;-79
2022/05/12 06:08:39;;;;;;;0.53;0.53;;;15.70;99.90;14.70;101661.00;;;;5032313;28;20183;-81
2022/05/12 06:11:20;;;;;;;1.40;1.30;;;15.40;99.90;15.30;101658.00;;;;5031860;28;20194;-77
2022/05/12 06:13:51;;;;;;;0.70;0.70;;;15.70;99.90;17.10;101662.00;;;;5048460;28;20191;-77
2022/05/12 06:16:28;;;;;;;0.40;0.40;;;16.80;99.90;15.80;101648.00;;;;5032277;28;20239;-80
2022/05/12 06:19:02;;;;;;;6.97;2.92;;;16.80;99.90;18.30;101656.00;;;;5048308;28;20190;-79
2022/05/12 06:21:39;;;;;;;0.20;0.20;;;17.90;99.90;17.00;101658.00;;;;5048881;28;20189;-78
2022/05/12 06:24:08;;;;;;;0.57;0.47;;;17.60;99.90;19.60;101673.00;;;;5048672;28;20634;-78
2022/05/12 06:26:42;;;;;;;0.10;0.10;;;18.90;99.90;22.40;101674.00;;;;5048788;28;20541;-79
2022/05/12 06:29:19;;;;;;;1.38;1.25;;;20.90;99.90;19.80;101716.00;;;;5048259;28;20186;-79
2022/05/12 06:31:56;;;;;;;0.20;0.20;;;20.70;99.90;17.70;101673.00;;;;5031487;28;20218;-78
2022/05/12 06:34:43;;;;;;;0.10;0.10;;;18.90;99.90;17.00;101665.00;;;;5032820;28;20167;-77
2022/05/12 06:37:29;;;;;;;2.30;1.63;;;18.00;99.90;17.00;101661.00;;;;5033435;28;20185;-86
2022/05/12 06:39:57;;;;;;;0.93;0.93;;;17.70;99.90;16.90;101665.00;;;;5048628;28;20214;-88
2022/05/12 06:42:25;;;;;;;0.20;0.20;;;17.70;99.90;16.90;101667.00;;;;5031676;28;20243;-88
2022/05/12 06:44:56;;;;;;;0.30;0.30;;;17.30;99.90;18.90;101686.00;;;;5048597;28;20190;-87
2022/05/12 06:47:25;;;;;;;0.65;0.63;;;18.50;99.90;21.80;101762.00;;;;5032557;28;20183;-86
2022/05/12 06:49:52;;;;;;;0.52;0.52;;;20.90;99.90;19.70;101752.00;;;;5048255;28;20650;-90
2022/05/12 06:52:21;;;;;;;1.02;1.00;;;20.30;99.90;21.20;101750.00;;;;5033034;28;20735;-73
2022/05/12 06:54:47;;;;;;;0.28;0.28;;;20.50;99.90;22.90;101801.00;;;;5051776;28;20190;-82
2022/05/12 06:57:27;;;;;;;0.38;0.38;;;21.90;99.90;18.00;101767.00;;;;5052102;28;20572;-86
2022/05/12 06:59:55;;;;;;;0.28;0.28;;;20.20;99.90;18.00;101724.00;;;;5050719;28;20184;-86
2022/05/12 07:02:25;;;;;;;2.70;1.10;;;19.30;99.90;19.80;101757.00;;;;5041641;28;20204;-87
2022/05/12 07:04:53;;;;;;;2.25;1.63;;;19.60;99.90;17.90;101746.00;;;;5047445;28;20206;-87
2022/05/12 07:07:20;;;;;;;3.10;1.40;;;18.60;99.90;17.90;101746.00;;;;5016036;28;20623;-85
2022/05/12 07:09:54;;;;;;;0.25;0.25;;;18.40;99.90;17.70;101717.00;;;;5037550;28;20194;-83
2022/05/12 07:12:23;;;;;;;1.38;1.27;;;18.10;99.90;17.20;101747.00;;;;5037063;28;20765;-83
2022/05/12 07:14:53;;;;;;;0.45;0.45;;;18.00;99.90;17.30;101720.00;;;;5035438;28;20225;-83
2022/05/12 07:17:20;;;;;;;0.47;0.47;;;17.70;99.90;16.90;101768.00;;;;5035158;28;20195;-83
2022/05/12 07:19:47;;;;;;;0.38;0.38;;;17.80;99.90;18.80;101764.00;;;;5035214;28;20205;-83
2022/05/12 07:28:06;;;;;;;3.63;1.73;;;19.00;99.90;20.10;101834.00;;;;5035483;28;20537;-88
2022/05/12 07:33:31;;;;;;;3.53;2.78;;;20.30;99.90;19.20;101766.00;;;;5035377;28;20222;-85
2022/05/12 07:36:02;;;;;;;8.25;1.77;;;19.60;99.90;17.90;101797.00;;;;5035031;28;20170;-88
2022/05/12 07:38:28;;;;;;;1.05;1.05;;;19.10;99.90;19.70;101851.00;;;;5018613;28;20629;-88
2022/05/12 07:40:55;;;;;;;0.82;0.82;;;19.40;99.90;21.00;101887.00;;;;5025831;28;20207;-88
2022/05/12 07:43:21;;;;;;;6.63;3.20;;;20.60;99.90;19.40;101862.00;;;;5045827;28;20190;-88
2022/05/12 07:45:51;;;;;;;19.08;1.42;;;20.00;99.90;21.40;101902.00;;;;5034670;28;20194;-89
2022/05/12 07:48:19;;;;;;;2.35;1.98;;;20.70;99.90;22.90;101915.00;;;;5034728;28;20214;-87
2022/05/12 07:50:48;;;;;;;0.15;0.15;;;22.30;99.90;21.30;101887.00;;;;5036230;28;20522;-85
2022/05/12 07:53:14;;;;;;;8.20;1.95;;;21.10;99.90;21.40;101926.00;;;;5035857;28;20210;-85
2022/05/12 07:55:42;;;;;;;0.10;0.10;;;21.70;99.90;21.80;101931.00;;;;5036243;28;20217;-84
2022/05/12 07:58:11;;;;;;;0.10;0.10;;;21.60;99.90;22.00;101929.00;;;;5034724;28;20511;-87
2022/05/12 08:00:41;;;;;;;0.10;0.10;;;21.90;99.90;22.80;101931.00;;;;5018004;28;20591;-87
2022/05/12 08:03:09;;;;;;;0.85;0.85;;;22.50;99.90;23.80;101910.00;;;;5017697;28;20183;-88
2022/05/12 08:05:36;;;;;;;0.50;0.50;;;23.50;99.90;23.20;101938.00;;;;5034037;28;20569;-86
2022/05/12 08:08:04;;;;;;;0.45;0.45;;;23.10;99.90;24.30;101915.00;;;;5035021;28;20190;-86
2022/05/12 08:10:34;;;;;;;6.43;1.38;;;23.70;99.90;19.90;101957.00;;;;5033934;28;20171;-83
2022/05/12 08:13:01;;;;;;;0.35;0.30;;;21.50;99.90;18.60;101918.00;;;;5017798;28;20219;-82
2022/05/12 08:15:26;;;;;;;1.13;0.93;;;19.60;99.90;18.90;101920.00;;;;5031612;28;20217;-84
2022/05/12 08:17:55;;;;;;;0.13;0.13;;;19.30;99.90;17.90;101904.00;;;;5027068;28;20210;-83
2022/05/12 08:20:21;;;;;;;0.20;0.20;;;18.60;99.90;19.40;101926.00;;;;5034346;28;20650;-83
2022/05/12 08:22:47;;;;;;;0.28;0.28;;;19.20;99.90;18.10;101894.00;;;;5024400;28;20195;-81
2022/05/12 08:25:14;;;;;;;0.10;0.10;;;19.00;99.90;21.10;101943.00;;;;5033351;28;20220;-81
2022/05/12 08:27:40;;;;;;;0.10;0.10;;;20.00;99.90;21.00;101900.00;;;;5017563;28;20646;-83
2022/05/12 08:30:13;;;;;;;0.10;0.10;;;21.00;99.90;23.60;101939.00;;;;5017258;28;20673;-84
2022/05/12 08:32:39;;;;;;;0.20;0.20;;;22.30;99.90;22.90;101922.00;;;;5017201;28;20207;-84
2022/05/12 08:35:05;;;;;;;9.55;0.60;;;23.20;99.90;22.20;101921.00;;;;5034988;28;20183;-81
2022/05/12 08:37:38;;;;;;;0.10;0.10;;;22.70;99.90;22.80;101942.00;;;;5017357;28;20615;-81
2022/05/12 08:40:06;;;;;;;0.60;0.60;;;22.60;99.90;22.50;101930.00;;;;5034842;28;20618;-82
2022/05/12 08:42:41;;;;;;;0.17;0.17;;;22.60;99.90;22.20;101946.00;;;;5033805;28;20558;-69
2022/05/12 08:45:09;;;;;;;0.10;0.10;;;22.20;99.90;24.40;101927.00;;;;5033736;28;20179;-71
2022/05/12 08:47:45;;;;;;;0.10;0.10;;;23.40;99.90;24.30;101949.00;;;;5033984;28;20280;-70
2022/05/12 08:50:23;;;;;;;0.22;0.22;;;24.00;99.90;26.00;101905.00;;;;5032890;28;20228;-71
2022/05/12 08:53:01;;;;;;;1.20;0.68;;;24.90;99.70;27.00;101890.00;;;;5016868;28;20348;-70
2022/05/12 08:55:40;;;;;;;0.40;0.40;;;25.90;96.60;22.60;101872.00;;;;5033638;28;20265;-69
2022/05/12 08:58:20;;;;;;;1.77;0.88;;;23.60;97.10;21.50;101936.00;;;;5049420;28;20189;-73
2022/05/12 09:00:58;;;;;;;0.10;0.10;;;22.10;98.90;21.40;101933.00;;;;5033473;28;20638;-76
2022/05/12 09:04:20;;;;;;;0.57;0.57;;;21.60;99.40;21.20;101944.00;;;;5033732;28;20183;-75
2022/05/12 09:07:13;;;;;;;0.10;0.10;;;20.80;99.90;20.60;101958.00;;;;5033164;28;20175;-70
2022/05/12 09:09:51;;;;;;;0.70;0.70;;;20.30;99.90;19.30;101964.00;;;;5033303;28;20561;-73
2022/05/12 09:12:31;;;;;;;0.40;0.40;;;19.80;99.90;19.40;101950.00;;;;5032350;28;20237;-75
2022/05/12 09:15:07;;;;;;;0.20;0.20;;;19.40;99.90;18.90;101952.00;;;;5033271;28;20175;-67
2022/05/12 09:17:43;;;;;;;0.52;0.40;;;19.20;99.90;18.60;101953.00;;;;5032389;28;20206;-69
2022/05/12 09:20:12;;;;;;;0.43;0.43;;;19.30;99.90;19.80;101959.00;;;;5049340;28;20236;-82
2022/05/12 09:22:41;;;;;;;1.30;0.65;;;19.60;99.90;19.10;101954.00;;;;5016432;28;20670;-69
2022/05/12 09:25:10;;;;;;;0.55;0.55;;;19.60;99.90;19.60;101950.00;;;;5033225;28;20603;-70
2022/05/12 09:27:39;;;;;;;0.17;0.17;;;19.50;99.90;20.80;101959.00;;;;5014638;28;20182;-71
2022/05/12 09:30:10;;;;;;;0.10;0.10;;;20.30;99.90;21.00;101948.00;;;;5049337;28;20190;-69
2022/05/12 09:32:39;;;;;;;0.22;0.22;;;20.80;99.90;20.00;101937.00;;;;5031760;28;20249;-68
2022/05/12 09:35:28;;;;;;;2.30;0.50;;;20.50;99.90;21.20;101905.00;;;;5049171;28;20179;-77
2022/05/12 09:37:54;;;;;;;0.32;0.32;;;21.00;99.90;19.20;101945.00;;;;5048992;28;20175;-70
2022/05/12 09:40:35;;;;;;;3.92;1.50;;;19.60;99.90;19.00;101951.00;;;;5048393;28;20242;-63
2022/05/12 09:43:18;;;;;;;0.57;0.57;;;19.50;99.90;19.00;101950.00;;;;5032461;28;20200;-74
2022/05/12 09:46:00;;;;;;;0.10;0.10;;;19.10;99.90;18.40;101944.00;;;;5049267;28;20178;-72
2022/05/12 09:48:29;;;;;;;1.75;0.60;;;18.70;99.90;18.40;101943.00;;;;5049174;28;20192;-74
2022/05/12 09:51:30;;;;;;;0.10;0.10;;;18.70;99.90;19.40;101949.00;;;;5032500;28;20179;-68
2022/05/12 09:54:18;;;;;;;0.30;0.30;;;19.20;99.90;21.30;101953.00;;;;5013952;28;20190;-69
2022/05/12 09:57:14;;;;;;;0.10;0.10;;;20.70;99.90;20.50;101933.00;;;;5033786;28;20182;-85
2022/05/12 09:59:45;;;;;;;0.10;0.10;;;21.20;99.90;22.20;101935.00;;;;5033302;28;20179;-72
2022/05/12 10:08:24;;;;;;;3.50;0.95;;;20.90;99.90;21.40;101938.00;;;;5033414;28;20198;-76
2022/05/12 10:10:58;;;;;;;0.22;0.22;;;21.00;99.90;20.90;101935.00;;;;5048783;28;20183;-73
2022/05/12 10:13:44;;;;;;;0.60;0.60;;;20.90;99.90;21.70;101906.00;;;;5030996;28;20218;-73
2022/05/12 10:16:15;;;;;;;0.45;0.35;;;21.30;99.90;20.90;101940.00;;;;5049050;28;20174;-73
2022/05/12 10:18:49;;;;;;;0.40;0.40;;;20.90;99.90;20.50;101912.00;;;;5048233;28;20647;-73
2022/05/12 10:33:33;;;;;;;0.32;0.32;;;19.80;99.90;19.20;101939.00;;;;5070329;28;20554;-76
2022/05/12 10:36:33;;;;;;;0.82;0.77;;;19.40;99.90;19.70;101912.00;;;;5050949;28;20193;-76
2022/05/12 10:39:24;;;;;;;0.10;0.10;;;19.30;99.90;20.40;101907.00;;;;5048889;28;20661;-76
2022/05/12 10:42:28;;;;;;;1.92;1.50;;;20.20;99.90;21.50;101929.00;;;;5050771;28;20182;-76
2022/05/12 10:45:12;;;;;;;0.17;0.17;;;20.90;99.90;22.20;101927.00;;;;5048651;28;20647;-76
2022/05/12 10:48:22;;;;;;;0.85;0.85;;;21.50;99.90;22.40;101915.00;;;;5032546;28;20182;-76
2022/05/12 10:51:08;;;;;;;1.23;0.68;;;21.90;99.90;19.90;101904.00;;;;5049631;28;20641;-75
2022/05/12 10:54:10;;;;;;;1.83;0.68;;;20.50;99.90;21.50;101886.00;;;;5082256;28;20174;-76
2022/05/12 10:57:10;;;;;;;0.10;0.10;;;20.90;99.90;21.10;101908.00;;;;5050474;28;20671;-76
2022/05/12 11:00:12;;;;;;;0.10;0.10;;;20.90;99.60;22.00;101891.00;;;;5048831;28;20186;-75
2022/05/12 11:02:43;;;;;;;0.75;0.70;;;21.50;99.30;22.30;101876.00;;;;5048820;28;20277;-76
2022/05/12 11:05:31;;;;;;;0.30;0.30;;;22.20;98.40;20.60;101873.00;;;;5049020;28;20252;-76
2022/05/12 11:08:11;;;;;;;0.30;0.30;;;21.00;99.50;20.50;101926.00;;;;5048506;28;20543;-76
2022/05/12 11:10:48;;;;;;;0.32;0.30;;;20.90;99.80;19.60;101920.00;;;;5048350;28;20634;-76
2022/05/12 11:13:51;;;;;;;0.98;0.93;;;20.10;99.90;20.00;101928.00;;;;5048243;28;20522;-76
2022/05/12 11:16:19;;;;;;;0.73;0.70;;;20.30;99.90;20.50;101925.00;;;;5048086;28;20174;-75
2022/05/12 11:19:03;;;;;;;0.10;0.10;;;20.30;99.90;22.10;101916.00;;;;5048979;28;20175;-76
2022/05/12 11:21:39;;;;;;;0.30;0.30;;;21.30;99.90;22.00;101852.00;;;;5049133;28;20170;-76
2022/05/12 11:24:15;;;;;;;0.10;0.10;;;21.70;98.50;23.10;101900.00;;;;5039466;28;20195;-76
2022/05/12 11:27:03;;;;;;;0.90;0.90;;;22.40;98.20;22.70;101895.00;;;;5030243;28;20186;-76
2022/05/12 11:30:15;;;;;;;1.20;1.10;;;23.00;96.60;21.00;101894.00;;;;5028342;28;20179;-76
2022/05/12 11:33:02;;;;;;;0.28;0.20;;;22.00;97.20;21.90;101874.00;;;;5033874;28;20313;-77
2022/05/12 11:35:51;;;;;;;0.85;0.50;;;22.00;96.70;24.40;101891.00;;;;5048577;28;20699;-77
2022/05/12 11:38:39;;;;;;;0.20;0.20;;;23.30;96.80;21.10;101891.00;;;;5048271;28;20277;-77
2022/05/12 11:41:40;;;;;;;0.88;0.63;;;22.10;95.80;21.00;101895.00;;;;5049646;28;20245;-77
2022/05/12 11:44:24;;;;;;;0.10;0.10;;;21.40;95.90;21.30;101901.00;;;;5037162;28;20174;-77
2022/05/12 11:47:40;;;;;;;2.20;2.20;;;21.00;97.60;20.70;101898.00;;;;5051601;28;20187;-75
2022/05/12 11:50:14;;;;;;;0.47;0.45;;;20.90;97.80;21.30;101904.00;;;;5027921;28;20658;-75
2022/05/12 11:53:16;;;;;;;0.77;0.77;;;21.10;97.70;21.00;101892.00;;;;5034405;28;20210;-75